Current Conditions
Mostly Clear
Conditions



Pressure
1019.92 (hPa) - 30.12 (inHG)
Visibility

10.0 (km) - 6.2 (miles)
Temperature
19  °C
Temperature
14  °C
Dewpoint
73  %
 Humidity
Wind Speed
21  km/h
11  kts
13  mph
5.8  m/s
Wind Direction
N
45°
E
90°
135°
S
180°
225°
W
270°
315°
 270°

Due West
Airport Data
EBOS
Ostend-Bruges International Airport
Metar :EBOS 231850Z 27011KT CAVOK 19/14 Q1020 NOSIG
Sat 23rd July 19:50 pm
Raw Metar Info
Raw METAR is the most common format in the world for the transmission of observational weather data. It is highly standardized through the International Civil Aviation Organization (ICAO), which allows it to be understood throughout most of the world.
API Info
Data Provided by
https://www.checkwx.com/weather/EBOS

Aviation Weather providing METAR, TAF, AIRMET, SIGMET and OUTLOOK Weather Reports
© Info
CSS/SVG/PHP scripts were developed by weather34.com for use in the weather34 template © 2015-2022

Guide Info provided by Metar-Wikipedia